Time;durP1;ratioP1;P1;durP2;ratioP2;P2;SDS_P1;SDS_P2;PMS_P1;PMS_P2;Temp;Humidity;BMP_temperature;BMP_pressure;BME280_temperature;BME280_humidity;BME280_pressure;Samples;Min_cycle;Max_cycle;Signal;HPM_P1;HPM_P2
2022/04/17 00:00:46;;;;;;;5.45;3.40;;;;;;;6.66;54.09;103042.38;5060631;28;20051;-64
2022/04/17 00:03:11;;;;;;;5.97;3.78;;;;;;;6.60;54.68;103039.81;5063543;28;20639;-64
2022/04/17 00:05:37;;;;;;;7.55;3.35;;;;;;;6.65;54.24;103045.94;5063553;28;20124;-65
2022/04/17 00:08:03;;;;;;;7.47;3.63;;;;;;;6.66;53.70;103042.38;5063578;28;20520;-64
2022/04/17 00:10:29;;;;;;;6.22;4.20;;;;;;;6.58;54.01;103041.63;5063810;28;20044;-64
2022/04/17 00:12:55;;;;;;;8.75;3.45;;;;;;;6.63;54.05;103039.78;5063193;28;20037;-65
2022/04/17 00:15:20;;;;;;;5.63;2.90;;;;;;;6.65;53.38;103038.00;5063551;28;20051;-64
2022/04/17 00:17:46;;;;;;;4.43;3.40;;;;;;;6.57;53.84;103032.75;5063164;28;20105;-64
2022/04/17 00:20:13;;;;;;;10.57;3.83;;;;;;;6.48;54.85;103039.06;5063520;28;20036;-64
2022/04/17 00:22:39;;;;;;;7.15;3.70;;;;;;;6.46;55.10;103039.97;5063025;28;20048;-64
2022/04/17 00:25:07;;;;;;;4.68;3.53;;;;;;;6.47;54.38;103036.41;5061292;28;20040;-64
2022/04/17 00:27:33;;;;;;;4.28;3.40;;;;;;;6.36;54.99;103041.81;5062892;28;20054;-64
2022/04/17 00:29:59;;;;;;;8.85;3.80;;;;;;;6.37;54.82;103037.41;5063315;28;20040;-64
2022/04/17 00:32:24;;;;;;;5.20;3.53;;;;;;;6.36;54.92;103035.66;5062973;28;20552;-64
2022/04/17 00:34:49;;;;;;;5.93;3.20;;;;;;;6.34;54.82;103032.16;5062373;28;20041;-64
2022/04/17 00:37:15;;;;;;;5.45;3.15;;;;;;;6.31;54.55;103035.69;5062077;28;20068;-64
2022/04/17 00:39:40;;;;;;;6.70;3.67;;;;;;;6.21;55.45;103031.38;5043573;28;20384;-64
2022/04/17 00:42:07;;;;;;;11.48;4.05;;;;;;;6.21;55.25;103034.03;5062088;28;20059;-64
2022/04/17 00:44:34;;;;;;;3.38;2.97;;;;;;;6.20;55.47;103034.94;5061905;28;20045;-64
2022/04/17 00:46:59;;;;;;;9.32;3.55;;;;;;;6.20;55.62;103025.22;5061939;28;20048;-64
2022/04/17 00:49:25;;;;;;;7.45;3.85;;;;;;;6.14;55.78;103035.00;5061308;28;20040;-64
2022/04/17 00:51:51;;;;;;;6.35;3.13;;;;;;;6.01;56.17;103025.41;5043513;28;20052;-64
2022/04/17 00:54:19;;;;;;;6.40;3.85;;;;;;;5.95;56.15;103031.63;5062653;28;20575;-63
2022/04/17 00:56:47;;;;;;;7.15;3.58;;;;;;;5.80;57.16;103018.50;5063462;28;20801;-64
2022/04/17 00:59:13;;;;;;;5.28;3.22;;;;;;;5.68;57.83;103023.00;5064823;28;20059;-64
2022/04/17 01:01:39;;;;;;;8.73;4.00;;;;;;;5.71;57.96;103028.25;5047619;28;20660;-64
2022/04/17 01:04:05;;;;;;;5.32;3.63;;;;;;;5.60;58.57;103024.81;5065060;28;20045;-64
2022/04/17 01:06:32;;;;;;;7.03;4.90;;;;;;;5.66;57.69;103029.19;5065372;28;20059;-64
2022/04/17 01:08:58;;;;;;;5.00;3.15;;;;;;;5.62;57.63;103028.34;5047172;28;20048;-64
2022/04/17 01:11:24;;;;;;;6.70;3.60;;;;;;;5.51;58.72;103038.13;5065752;28;20051;-64
2022/04/17 01:13:52;;;;;;;4.60;3.05;;;;;;;5.26;60.08;103031.22;5066647;28;20041;-63
2022/04/17 01:16:18;;;;;;;6.68;3.63;;;;;;;5.25;59.66;103030.34;5065707;28;20068;-64
2022/04/17 01:18:57;;;;;;;6.20;3.30;;;;;;;5.04;61.21;103036.63;5064093;28;20289;-64
2022/04/17 01:21:26;;;;;;;6.68;3.88;;;;;;;5.02;61.38;103030.50;5063710;28;20098;-64
2022/04/17 01:29:22;;;;;;;7.20;4.50;;;;;;;4.52;63.93;103034.22;5061551;28;20036;-64
2022/04/17 01:31:47;;;;;;;6.20;4.05;;;;;;;4.37;64.43;103024.56;5061365;28;20404;-64
2022/04/17 01:34:15;;;;;;;5.38;3.92;;;;;;;4.16;65.83;103027.22;5043185;28;20052;-64
2022/04/17 01:36:43;;;;;;;6.50;3.97;;;;;;;4.05;66.72;103029.88;5061001;28;20048;-64
2022/04/17 01:39:08;;;;;;;5.85;3.65;;;;;;;4.07;65.74;103030.78;5060764;28;20051;-63
2022/04/17 01:41:34;;;;;;;7.65;4.18;;;;;;;3.91;66.65;103018.44;5061269;28;20041;-63
2022/04/17 01:43:59;;;;;;;7.80;4.57;;;;;;;3.81;67.03;103025.50;5060902;28;20071;-64
2022/04/17 01:46:24;;;;;;;6.32;3.60;;;;;;;3.67;67.70;103035.19;5042155;28;20576;-64
2022/04/17 01:48:50;;;;;;;5.57;3.90;;;;;;;3.62;68.11;103036.94;5060704;28;20044;-64
2022/04/17 01:51:15;;;;;;;6.82;4.57;;;;;;;3.51;68.86;103034.25;5060900;28;20048;-64
2022/04/17 01:53:41;;;;;;;10.48;4.00;;;;;;;3.57;68.41;103038.69;5042771;28;20052;-64
2022/04/17 01:56:06;;;;;;;5.78;3.47;;;;;;;3.60;68.91;103039.56;5042817;28;20032;-64
2022/04/17 01:58:32;;;;;;;7.53;4.15;;;;;;;3.41;69.54;103036.88;5060811;28;20045;-64
2022/04/17 02:00:57;;;;;;;6.63;4.00;;;;;;;3.37;70.04;103036.03;5042763;28;20044;-64
2022/04/17 02:03:22;;;;;;;8.30;3.65;;;;;;;3.22;70.18;103034.25;5042769;28;20036;-64
2022/04/17 02:05:48;;;;;;;8.05;4.53;;;;;;;3.24;70.69;103037.75;5053013;28;20455;-64
2022/04/17 02:08:15;;;;;;;7.60;3.97;;;;;;;3.01;70.96;103024.53;5041079;28;20110;-64
2022/04/17 02:10:40;;;;;;;6.75;4.05;;;;;;;3.02;71.39;103028.91;5041315;28;20067;-64
2022/04/17 02:13:06;;;;;;;9.50;3.78;;;;;;;2.85;71.42;103033.22;5042164;28;20499;-64
2022/04/17 02:15:32;;;;;;;6.15;4.15;;;;;;;2.88;71.62;103029.72;5040815;28;20033;-64
2022/04/17 02:17:57;;;;;;;5.70;3.90;;;;;;;2.88;71.84;103027.09;5040977;28;20071;-64
2022/04/17 02:20:23;;;;;;;6.18;2.90;;;;;;;3.03;71.74;103027.16;5040513;28;20037;-64
2022/04/17 02:22:48;;;;;;;8.15;4.20;;;;;;;3.05;71.38;103018.34;5041548;28;20052;-64
2022/04/17 02:25:14;;;;;;;6.20;4.22;;;;;;;3.07;71.75;103024.53;5040960;28;20044;-64
2022/04/17 02:27:39;;;;;;;6.45;3.90;;;;;;;3.01;71.46;103021.88;5059734;28;20040;-64
2022/04/17 02:30:05;;;;;;;7.65;3.75;;;;;;;2.91;71.99;103027.09;5059950;28;20118;-64
2022/04/17 02:32:30;;;;;;;10.98;4.22;;;;;;;2.82;72.35;103022.69;5059203;28;20028;-64
2022/04/17 02:34:56;;;;;;;5.65;4.30;;;;;;;2.89;71.38;103026.22;5059480;28;20638;-64
2022/04/17 02:37:21;;;;;;;8.32;4.28;;;;;;;3.02;70.18;103020.13;5056902;28;20048;-64
2022/04/17 02:39:47;;;;;;;8.05;4.50;;;;;;;3.23;68.52;103016.66;5057400;28;20052;-64
2022/04/17 02:42:13;;;;;;;7.95;3.97;;;;;;;3.29;68.97;103012.28;5059268;28;20043;-64
2022/04/17 02:44:38;;;;;;;7.05;5.03;;;;;;;3.26;68.88;103014.00;5030190;28;20025;-65
2022/04/17 02:49:47;;;;;;;7.18;3.58;;;;;;;2.65;72.05;103011.19;5039417;28;20037;-64
2022/04/17 02:52:14;;;;;;;6.90;4.20;;;;;;;2.55;72.82;103015.53;5039657;28;20029;-64
2022/04/17 02:54:40;;;;;;;6.88;3.60;;;;;;;2.41;73.48;103014.56;5040262;28;20770;-64
2022/04/17 02:57:05;;;;;;;6.38;3.75;;;;;;;2.29;74.28;103010.13;5040129;28;20041;-64
2022/04/17 02:59:30;;;;;;;7.72;4.07;;;;;;;2.61;73.41;103015.59;5039987;28;20041;-64
2022/04/17 03:07:24;;;;;;;6.60;4.03;;;;;;;2.30;73.74;103020.66;5040285;28;20068;-63
2022/04/17 03:09:49;;;;;;;6.65;3.88;;;;;;;2.40;73.51;103010.19;5040170;28;20734;-64
2022/04/17 03:12:14;;;;;;;7.10;3.88;;;;;;;2.32;73.35;103013.66;5040315;28;20041;-64
2022/04/17 03:14:40;;;;;;;7.40;4.07;;;;;;;2.43;73.32;103018.09;5040203;28;20524;-64
2022/04/17 03:17:06;;;;;;;9.77;4.32;;;;;;;2.40;73.89;103015.44;5040215;28;20067;-64
2022/04/17 03:19:31;;;;;;;9.15;4.18;;;;;;;2.44;73.03;103011.97;5040161;28;20114;-64
2022/04/17 03:21:57;;;;;;;11.60;4.55;;;;;;;2.50;72.65;103006.72;5053141;28;20044;-64
2022/04/17 03:24:22;;;;;;;8.35;4.40;;;;;;;2.56;72.03;103004.13;5060338;28;20044;-64
2022/04/17 03:26:48;;;;;;;6.60;4.60;;;;;;;2.70;71.52;102996.28;5060318;28;20349;-64
2022/04/17 03:29:14;;;;;;;7.72;4.90;;;;;;;2.77;71.57;102998.09;5060028;28;20087;-63
2022/04/17 03:31:39;;;;;;;12.00;5.47;;;;;;;2.69;71.37;102995.41;5060446;28;20048;-64
2022/04/17 03:34:08;;;;;;;9.75;5.18;;;;;;;2.63;71.11;102997.13;5060742;28;20048;-63
2022/04/17 03:36:42;;;;;;;13.45;4.95;;;;;;;2.63;71.47;102991.88;5061585;28;20181;-64
2022/04/17 03:39:08;;;;;;;7.40;4.13;;;;;;;2.63;72.02;102981.34;5063179;28;20048;-64
2022/04/17 03:41:34;;;;;;;7.07;4.90;;;;;;;2.60;72.36;102985.69;5063091;28;20048;-64
2022/04/17 03:44:02;;;;;;;8.75;5.30;;;;;;;2.64;71.91;102981.34;5062474;28;20040;-64
2022/04/17 03:46:27;;;;;;;9.13;4.63;;;;;;;2.57;71.74;102980.44;5062079;28;20036;-64
2022/04/17 03:48:53;;;;;;;12.48;5.47;;;;;;;2.63;71.39;102981.34;5062118;28;20098;-64
2022/04/17 03:51:18;;;;;;;10.80;4.07;;;;;;;2.65;71.64;102984.84;5062688;28;20194;-64
2022/04/17 03:53:44;;;;;;;5.38;3.70;;;;;;;2.57;71.83;102977.81;5063007;28;20532;-64
2022/04/17 03:56:09;;;;;;;7.68;4.35;;;;;;;2.32;72.66;102989.97;5063047;28;20032;-64
2022/04/17 03:58:34;;;;;;;6.57;3.92;;;;;;;2.17;73.13;102983.75;5062969;28;20110;-64
2022/04/17 04:01:00;;;;;;;4.28;3.72;;;;;;;1.73;74.38;102981.69;5063260;28;20048;-64
2022/04/17 04:03:26;;;;;;;6.97;4.22;;;;;;;1.60;75.54;102985.94;5045152;28;20544;-64
2022/04/17 04:05:52;;;;;;;8.52;4.72;;;;;;;1.92;75.06;102977.44;5063436;28;20033;-63
2022/04/17 04:08:17;;;;;;;9.60;5.57;;;;;;;1.98;74.37;102977.47;5063353;28;20036;-64
2022/04/17 04:10:42;;;;;;;9.15;5.65;;;;;;;2.19;73.56;102971.47;5063652;28;20048;-64
2022/04/17 04:13:08;;;;;;;8.88;5.00;;;;;;;2.25;73.72;102977.63;5063533;28;20048;-64
2022/04/17 04:15:33;;;;;;;7.38;5.07;;;;;;;2.40;72.01;102973.31;5063631;28;20043;-64
2022/04/17 04:17:59;;;;;;;10.85;5.68;;;;;;;2.49;71.92;102966.34;5063733;28;20036;-64
2022/04/17 04:20:24;;;;;;;9.90;5.00;;;;;;;2.55;71.62;102961.09;5063720;28;20048;-64
2022/04/17 04:22:50;;;;;;;9.90;6.05;;;;;;;2.69;70.10;102963.78;5063244;28;20044;-64
2022/04/17 04:25:15;;;;;;;10.57;6.05;;;;;;;2.57;71.78;102967.28;5063691;28;20033;-64
2022/04/17 04:30:24;;;;;;;20.25;6.13;;;;;;;2.66;70.06;102955.00;5064280;28;20126;-64
2022/04/17 04:32:55;;;;;;;13.95;6.70;;;;;;;2.68;69.33;102954.13;5063666;28;20045;-64
2022/04/17 04:35:21;;;;;;;10.40;6.07;;;;;;;2.83;69.32;102953.31;5064237;28;20048;-64
2022/04/17 04:37:47;;;;;;;11.15;6.00;;;;;;;2.74;69.63;102950.63;5062993;28;20056;-64
2022/04/17 04:40:12;;;;;;;16.33;6.50;;;;;;;2.53;70.72;102943.56;5062950;28;20044;-64
2022/04/17 04:42:38;;;;;;;8.80;5.85;;;;;;;2.28;71.82;102948.69;5062947;28;20040;-64
2022/04/17 04:47:47;;;;;;;10.55;5.28;;;;;;;2.69;70.36;102944.47;5062280;28;20135;-64
2022/04/17 04:50:13;;;;;;;17.55;6.75;;;;;;;3.17;68.35;102938.44;5062602;28;20048;-64
2022/04/17 04:52:38;;;;;;;10.80;6.30;;;;;;;3.51;67.96;102935.81;5044043;28;20036;-64
2022/04/17 04:55:05;;;;;;;9.20;5.45;;;;;;;3.79;65.69;102939.31;5062294;28;20044;-64
2022/04/17 04:57:30;;;;;;;11.10;5.63;;;;;;;4.06;65.89;102944.53;5062653;28;20691;-64
2022/04/17 04:59:56;;;;;;;11.40;6.05;;;;;;;4.27;65.74;102938.31;5062954;28;20040;-64
2022/04/17 05:02:21;;;;;;;9.23;5.30;;;;;;;4.86;63.61;102938.91;5044903;28;20037;-64
2022/04/17 05:04:47;;;;;;;10.77;5.82;;;;;;;5.23;62.98;102934.28;5062364;28;20040;-64
2022/04/17 05:07:12;;;;;;;10.45;6.68;;;;;;;5.36;61.34;102938.56;5062401;28;20097;-64
2022/04/17 05:09:38;;;;;;;8.80;5.68;;;;;;;4.96;63.29;102945.91;5062413;28;20798;-64
2022/04/17 05:12:04;;;;;;;9.27;4.93;;;;;;;5.17;62.15;102937.84;5062617;28;20054;-64
2022/04/17 05:14:31;;;;;;;11.73;6.53;;;;;;;5.57;60.22;102944.56;5062337;28;20093;-64
2022/04/17 05:16:56;;;;;;;10.77;5.80;;;;;;;5.52;61.02;102936.66;5062145;28;20094;-64
2022/04/17 05:19:24;;;;;;;12.68;6.20;;;;;;;5.27;61.42;102935.13;5061655;28;20533;-64
2022/04/17 05:21:53;;;;;;;8.63;5.40;;;;;;;5.17;62.61;102944.88;5061845;28;20067;-64
2022/04/17 05:24:18;;;;;;;10.98;6.35;;;;;;;5.50;61.83;102943.75;5061564;28;20493;-64
2022/04/17 05:26:45;;;;;;;12.02;5.72;;;;;;;5.15;62.62;102944.91;5061503;28;20051;-64
2022/04/17 05:29:10;;;;;;;12.02;5.50;;;;;;;5.20;62.51;102948.38;5061548;28;20041;-64
2022/04/17 05:31:36;;;;;;;12.05;6.38;;;;;;;5.27;61.63;102948.34;5076787;28;20125;-64
2022/04/17 05:34:01;;;;;;;11.90;5.60;;;;;;;5.15;61.81;102949.31;5061520;28;20036;-64
2022/04/17 05:36:27;;;;;;;13.43;6.07;;;;;;;5.12;62.06;102950.22;5060819;28;20048;-64
2022/04/17 05:38:55;;;;;;;10.73;5.85;;;;;;;5.13;62.07;102951.97;5058309;28;20041;-64
2022/04/17 05:41:26;;;;;;;12.90;5.50;;;;;;;5.26;62.01;102939.53;5057310;28;20051;-64
2022/04/17 05:43:53;;;;;;;10.95;6.15;;;;;;;5.07;63.01;102951.13;5060530;28;20051;-64
2022/04/17 05:46:19;;;;;;;12.48;5.80;;;;;;;5.37;62.26;102942.09;5060457;28;20903;-64
2022/04/17 05:48:44;;;;;;;11.30;5.55;;;;;;;5.91;59.14;102940.75;5060219;28;20127;-64
2022/04/17 05:51:10;;;;;;;7.72;4.88;;;;;;;6.22;58.12;102941.31;5061154;28;20205;-66
2022/04/17 05:53:35;;;;;;;7.25;5.00;;;;;;;6.62;57.89;102939.94;5060663;28;20048;-66
2022/04/17 05:56:01;;;;;;;8.63;5.35;;;;;;;7.09;56.02;102936.63;5060132;28;20029;-66
2022/04/17 05:58:26;;;;;;;8.52;5.47;;;;;;;7.38;55.37;102935.28;5058795;28;20032;-66
2022/04/17 06:08:27;;;;;;;10.10;5.55;;;;;;;8.93;51.33;102933.16;5060909;28;20048;-66
2022/04/17 06:10:53;;;;;;;9.23;5.85;;;;;;;9.02;51.12;102938.28;5060489;28;20052;-66
2022/04/17 06:13:18;;;;;;;8.05;5.65;;;;;;;9.18;50.74;102917.50;5060988;28;20123;-66
2022/04/17 06:15:44;;;;;;;9.88;5.80;;;;;;;9.68;48.70;102920.66;5061625;28;20539;-66
2022/04/17 06:18:10;;;;;;;13.23;7.28;;;;;;;9.57;48.54;102924.47;5060802;28;20052;-67
2022/04/17 06:20:35;;;;;;;9.95;5.65;;;;;;;10.20;48.50;102922.81;5061600;28;20048;-66
2022/04/17 06:23:01;;;;;;;11.07;6.72;;;;;;;10.40;47.87;102924.06;5061319;28;20051;-66
2022/04/17 06:25:26;;;;;;;12.38;5.88;;;;;;;10.75;47.08;102933.69;5061238;28;20059;-66
2022/04/17 06:27:52;;;;;;;11.45;6.05;;;;;;;10.57;46.97;102933.28;5061072;28;20114;-66
2022/04/17 06:30:20;;;;;;;6.55;5.00;;;;;;;10.36;47.35;102934.81;5075977;28;20794;-66
2022/04/17 06:32:47;;;;;;;8.88;5.10;;;;;;;10.84;46.07;102925.38;5061051;28;21053;-66
2022/04/17 06:35:14;;;;;;;9.38;5.47;;;;;;;11.07;45.21;102925.53;5055935;28;20029;-66
2022/04/17 06:37:45;;;;;;;7.15;4.80;;;;;;;11.43;45.50;102932.38;5058128;28;20072;-66
2022/04/17 06:43:57;;;;;;;7.50;5.38;;;;;;;12.02;46.58;102916.13;5051849;28;20118;-67
2022/04/17 06:46:23;;;;;;;5.00;4.07;;;;;;;11.85;43.26;102914.94;5061960;28;20617;-66
2022/04/17 06:48:49;;;;;;;9.93;5.43;;;;;;;11.40;43.83;102920.03;5061340;28;20048;-66
2022/04/17 06:51:14;;;;;;;7.72;4.57;;;;;;;11.10;44.20;102911.22;5060850;28;20147;-66
2022/04/17 07:01:23;;;;;;;7.45;4.75;;;;;;;11.81;44.03;102907.03;5057209;28;20524;-66
2022/04/17 07:03:48;;;;;;;6.10;4.45;;;;;;;12.29;43.74;102915.09;5060849;28;20048;-66
2022/04/17 07:06:13;;;;;;;7.60;4.32;;;;;;;11.90;42.73;102904.94;5060727;28;20039;-66
2022/04/17 07:08:39;;;;;;;8.07;5.47;;;;;;;12.53;43.62;102915.97;5056576;28;20028;-66
2022/04/17 07:11:05;;;;;;;4.72;3.97;;;;;;;12.33;42.43;102910.50;5060643;28;20029;-66
2022/04/17 07:13:31;;;;;;;7.05;4.70;;;;;;;12.47;42.73;102910.84;5055639;28;20045;-66
2022/04/17 07:15:56;;;;;;;7.00;3.78;;;;;;;12.31;42.86;102909.69;5069701;28;20123;-65
2022/04/17 07:18:22;;;;;;;6.18;3.97;;;;;;;12.14;41.93;102912.97;5060476;28;20039;-66
2022/04/17 07:20:47;;;;;;;4.93;3.03;;;;;;;12.49;41.98;102913.47;5063451;28;20552;-66
2022/04/17 07:23:13;;;;;;;6.60;3.83;;;;;;;12.78;41.17;102907.84;5064593;28;20045;-66
2022/04/17 07:28:37;;;;;;;9.27;3.45;;;;;;;13.08;40.87;102896.84;4999952;28;20050;-67
2022/04/17 07:31:02;;;;;;;7.95;2.75;;;;;;;12.80;42.05;102906.00;4999490;28;20402;-66
2022/04/17 07:33:28;;;;;;;6.72;4.00;;;;;;;12.33;41.71;102903.34;5007770;28;20042;-66
2022/04/17 07:35:53;;;;;;;4.93;3.45;;;;;;;12.16;41.75;102901.31;5019893;28;20025;-69
2022/04/17 07:38:19;;;;;;;4.85;2.97;;;;;;;12.67;41.90;102904.75;4997867;28;20517;-67
2022/04/17 07:40:45;;;;;;;4.57;3.13;;;;;;;11.96;44.32;102903.84;5000141;28;20471;-66
2022/04/17 07:43:11;;;;;;;6.25;3.67;;;;;;;12.25;43.30;102897.44;4988518;28;20054;-67
2022/04/17 07:45:37;;;;;;;4.57;3.33;;;;;;;13.29;42.72;102896.00;5001331;28;20061;-67
2022/04/17 07:48:02;;;;;;;6.63;4.30;;;;;;;13.29;40.51;102887.94;5014229;28;20128;-67
2022/04/17 07:50:31;;;;;;;4.43;3.72;;;;;;;12.86;41.03;102902.22;5023041;28;20045;-67
2022/04/17 07:52:58;;;;;;;8.38;3.67;;;;;;;13.26;40.54;102895.28;5023777;28;20042;-67
2022/04/17 07:55:23;;;;;;;4.15;3.47;;;;;;;12.49;41.79;102892.94;5019518;28;20048;-67
2022/04/17 07:58:12;;;;;;;5.65;4.30;;;;;;;12.32;41.49;102900.75;4981906;28;20038;-68
2022/04/17 08:00:46;;;;;;;3.33;2.97;;;;;;;12.98;41.07;102893.69;4982599;28;20133;-67
2022/04/17 08:07:00;;;;;;;5.93;3.47;;;;;;;13.65;42.49;102880.13;5005183;28;20188;-67
2022/04/17 08:09:25;;;;;;;5.40;3.78;;;;;;;13.75;41.54;102875.25;4999287;28;20137;-66
2022/04/17 08:23:00;;;;;;;3.78;3.10;;;;;;;13.41;42.21;102870.50;5752408;23;20468;-90
2022/04/17 08:25:26;;;;;;;4.90;4.15;;;;;;;13.38;41.61;102879.53;4975133;28;20034;-89
2022/04/17 08:27:55;;;;;;;4.43;3.53;;;;;;;14.02;40.70;102869.59;4956178;28;20053;-90
2022/04/17 08:30:27;;;;;;;4.70;3.47;;;;;;;14.71;41.85;102873.53;4920531;28;20480;-92
2022/04/17 08:32:54;;;;;;;4.90;3.88;;;;;;;13.95;38.90;102869.84;4972381;28;20034;-92
2022/04/17 08:35:20;;;;;;;6.55;3.47;;;;;;;14.99;39.09;102864.97;4972710;28;20046;-92
2022/04/17 08:37:46;;;;;;;6.72;3.30;;;;;;;14.74;39.59;102876.03;4983634;28;20038;-93
2022/04/17 08:40:13;;;;;;;5.72;3.47;;;;;;;13.76;39.95;102870.78;4966577;28;20526;-90
2022/04/17 08:42:39;;;;;;;5.85;3.70;;;;;;;13.23;39.82;102864.09;4968216;28;20098;-92
2022/04/17 08:45:07;;;;;;;5.45;3.85;;;;;;;13.58;40.79;102867.09;4960315;28;20495;-92
2022/04/17 08:47:34;;;;;;;5.97;3.28;;;;;;;13.73;42.16;102855.69;4947321;28;20137;-89
2022/04/17 08:50:00;;;;;;;6.05;3.88;;;;;;;13.74;40.46;102858.28;4973331;28;20034;-90
2022/04/17 08:52:30;;;;;;;8.82;3.65;;;;;;;13.07;43.13;102862.97;4983705;28;20045;-89
2022/04/17 08:54:59;;;;;;;5.53;3.63;;;;;;;13.44;42.87;102857.81;4980985;28;20040;-90
2022/04/17 08:57:25;;;;;;;5.65;3.83;;;;;;;13.34;41.60;102853.78;4978737;28;20046;-90
2022/04/17 08:59:50;;;;;;;4.82;3.20;;;;;;;13.21;42.48;102849.88;4950898;28;20031;-92
2022/04/17 09:02:18;;;;;;;3.38;3.08;;;;;;;12.86;41.98;102852.22;4967371;28;20034;-91
2022/04/17 09:04:45;;;;;;;4.22;3.15;;;;;;;14.05;42.51;102843.50;4957317;28;20034;-91
2022/04/17 09:07:12;;;;;;;6.75;4.13;;;;;;;14.12;42.14;102842.28;4954478;28;20093;-90
2022/04/17 09:09:48;;;;;;;4.85;3.40;;;;;;;13.90;42.56;102837.00;4956685;28;20049;-90
2022/04/17 09:12:24;;;;;;;4.45;2.97;;;;;;;14.02;39.91;102837.41;4948450;28;20041;-91
2022/04/17 09:14:53;;;;;;;4.47;3.22;;;;;;;13.76;40.20;102842.16;4959468;28;20049;-90
2022/04/17 09:17:18;;;;;;;6.15;3.45;;;;;;;13.29;40.60;102844.22;4943062;28;20479;-90
2022/04/17 09:19:44;;;;;;;3.88;3.45;;;;;;;13.51;41.55;102846.84;4942541;28;20042;-90
2022/04/17 09:22:10;;;;;;;6.32;3.70;;;;;;;13.77;41.61;102833.16;4955055;28;20593;-91
2022/04/17 09:24:37;;;;;;;5.32;3.20;;;;;;;14.35;41.42;102834.97;4959408;28;20399;-91
2022/04/17 09:27:04;;;;;;;4.45;3.28;;;;;;;14.55;40.98;102820.63;4947333;28;20041;-92
2022/04/17 09:29:38;;;;;;;3.88;3.10;;;;;;;14.42;38.44;102821.19;4957074;28;20082;-90
2022/04/17 09:32:09;;;;;;;4.88;3.13;;;;;;;14.51;42.02;102809.19;4963983;28;20082;-88
2022/04/17 09:34:41;;;;;;;3.55;2.95;;;;;;;14.74;39.88;102808.91;4932396;28;20046;-92
2022/04/17 09:37:29;;;;;;;4.55;3.30;;;;;;;15.18;42.24;102805.81;4949536;28;20046;-90
2022/04/17 09:40:06;;;;;;;4.47;3.03;;;;;;;13.96;38.10;102814.44;4921913;23;20083;-60
2022/04/17 09:42:32;;;;;;;4.55;3.15;;;;;;;14.11;39.17;102816.41;4946653;23;20059;-68
2022/04/17 09:44:57;;;;;;;5.18;2.83;;;;;;;14.27;41.59;102791.53;4962847;28;20511;-70
2022/04/17 09:47:27;;;;;;;5.57;3.38;;;;;;;14.48;40.78;102799.44;4951438;28;20089;-70
2022/04/17 09:50:05;;;;;;;3.83;2.90;;;;;;;14.29;39.73;102797.69;4925921;29;20047;-68
2022/04/17 09:52:40;;;;;;;5.57;3.35;;;;;;;15.11;40.31;102787.38;4928288;28;20038;-70
2022/04/17 09:55:06;;;;;;;5.93;3.33;;;;;;;14.44;39.13;102789.75;4951911;28;20073;-70
2022/04/17 09:57:38;;;;;;;3.95;3.33;;;;;;;14.83;40.59;102786.09;4970927;28;20113;-68
2022/04/17 10:00:10;;;;;;;5.00;3.47;;;;;;;14.70;39.83;102783.13;4977381;28;20545;-68
2022/04/17 10:02:40;;;;;;;5.35;3.28;;;;;;;14.93;42.63;102776.63;4966648;28;20048;-69
2022/04/17 10:05:08;;;;;;;4.43;3.00;;;;;;;15.55;38.16;102771.59;4970766;28;20038;-68
2022/04/17 10:07:37;;;;;;;3.17;2.85;;;;;;;15.67;42.07;102775.50;4970660;28;20084;-67
2022/04/17 10:10:05;;;;;;;3.35;2.72;;;;;;;15.61;38.87;102765.03;4961561;28;20038;-71
2022/04/17 10:12:33;;;;;;;5.65;2.58;;;;;;;15.83;40.12;102760.28;4962519;28;20085;-69
2022/04/17 10:15:04;;;;;;;5.07;2.22;;;;;;;16.31;38.66;102753.97;4962273;28;20035;-69
2022/04/17 10:17:30;;;;;;;2.97;2.22;;;;;;;15.66;41.00;102757.63;4913321;28;20093;-68
2022/04/17 10:20:01;;;;;;;2.40;2.15;;;;;;;14.99;36.67;102756.63;4974418;28;20050;-70
2022/04/17 10:22:31;;;;;;;2.72;2.30;;;;;;;15.19;38.50;102755.59;4948276;28;20081;-70
2022/04/17 10:24:58;;;;;;;3.00;2.08;;;;;;;15.44;37.82;102750.66;4974912;28;20038;-70
2022/04/17 10:27:28;;;;;;;2.67;2.45;;;;;;;15.81;37.04;102756.78;4937837;28;20046;-70
2022/04/17 10:30:00;;;;;;;3.08;2.33;;;;;;;15.00;34.51;102742.25;4969661;28;20034;-69
2022/04/17 10:33:02;;;;;;;4.30;2.10;;;;;;;15.26;35.24;102743.56;4980473;28;20054;-69
2022/04/17 10:35:32;;;;;;;2.65;1.95;;;;;;;15.27;35.75;102734.59;4955608;28;20084;-68
2022/04/17 10:38:18;;;;;;;2.88;1.80;;;;;;;15.15;34.08;102729.84;4961746;28;20039;-68
2022/04/17 10:40:56;;;;;;;3.33;1.98;;;;;;;15.16;36.74;102727.09;4933421;28;20057;-68
2022/04/17 10:43:22;;;;;;;4.70;2.45;;;;;;;15.19;35.44;102721.53;4960208;28;20094;-68
2022/04/17 10:46:08;;;;;;;2.80;1.88;;;;;;;15.26;35.43;102725.66;4948665;28;20107;-69
2022/04/17 10:48:42;;;;;;;2.90;2.03;;;;;;;15.23;36.50;102715.06;4942371;28;20047;-69
2022/04/17 10:51:24;;;;;;;3.00;2.25;;;;;;;15.25;36.50;102702.38;4939904;28;20069;-69
2022/04/17 10:54:00;;;;;;;2.17;1.90;;;;;;;15.86;39.13;102700.88;4955892;28;20043;-69
2022/04/17 10:56:26;;;;;;;3.90;2.47;;;;;;;15.72;37.06;102698.13;4905948;29;21179;-68
2022/04/17 10:58:56;;;;;;;4.30;2.70;;;;;;;15.66;36.82;102698.44;4922650;29;20054;-68
2022/04/17 11:01:41;;;;;;;3.45;2.50;;;;;;;15.51;37.60;102698.31;4941616;28;20070;-68
2022/04/17 11:04:31;;;;;;;3.60;2.72;;;;;;;15.71;37.04;102693.69;4952250;28;20042;-69
2022/04/17 11:07:06;;;;;;;4.68;2.38;;;;;;;15.88;39.88;102673.91;4939808;29;20058;-70
2022/04/17 11:09:42;;;;;;;3.00;2.35;;;;;;;16.23;41.44;102669.22;4952367;28;20046;-69
2022/04/17 11:12:10;;;;;;;3.40;2.28;;;;;;;15.57;37.32;102675.59;4945514;28;20779;-69
2022/04/17 11:14:39;;;;;;;2.65;2.13;;;;;;;15.68;36.82;102683.09;4957229;28;20380;-69
2022/04/17 11:17:09;;;;;;;2.20;2.00;;;;;;;15.76;36.00;102664.69;4927552;28;20039;-69
2022/04/17 11:19:40;;;;;;;2.80;2.25;;;;;;;15.72;36.47;102660.47;4923085;29;20047;-69
2022/04/17 11:22:08;;;;;;;6.88;2.92;;;;;;;15.85;36.22;102657.94;4940507;28;20097;-70
2022/04/17 11:25:00;;;;;;;4.10;2.28;;;;;;;16.17;37.91;102653.44;4957371;28;20099;-69
2022/04/17 11:27:32;;;;;;;3.53;2.20;;;;;;;16.22;36.24;102654.03;4949208;28;20039;-70
2022/04/17 11:30:01;;;;;;;4.30;2.90;;;;;;;15.84;38.11;102656.22;4938868;28;20083;-70
2022/04/17 11:32:32;;;;;;;3.40;2.45;;;;;;;15.86;37.81;102654.28;4934118;28;20040;-70
2022/04/17 11:35:03;;;;;;;2.70;2.35;;;;;;;16.03;36.94;102647.00;4936779;29;20043;-73
2022/04/17 11:37:30;;;;;;;3.08;2.53;;;;;;;16.00;33.75;102649.00;4947942;28;20097;-70
2022/04/17 11:39:57;;;;;;;3.50;2.30;;;;;;;15.56;32.78;102641.56;4948651;28;20059;-70
2022/04/17 11:42:27;;;;;;;3.63;2.50;;;;;;;16.01;35.99;102629.19;4935026;28;20058;-70
2022/04/17 11:44:53;;;;;;;5.50;3.55;;;;;;;16.02;36.87;102621.06;4935388;28;20039;-69
2022/04/17 11:47:20;;;;;;;3.40;2.70;;;;;;;16.04;34.33;102620.97;4944249;23;20054;-67
2022/04/17 11:49:48;;;;;;;4.40;2.63;;;;;;;16.39;35.09;102620.72;4924612;28;20044;-67
2022/04/17 11:52:21;;;;;;;8.25;2.85;;;;;;;16.61;34.99;102615.75;4933545;28;20069;-67
2022/04/17 11:54:48;;;;;;;3.97;3.40;;;;;;;16.37;33.95;102601.97;4907756;28;20042;-67
2022/04/17 11:57:14;;;;;;;4.53;2.60;;;;;;;16.21;32.34;102599.28;4936588;28;20104;-67
2022/04/17 11:59:51;;;;;;;3.38;2.65;;;;;;;16.53;37.34;102596.53;4915603;29;20062;-67
2022/04/17 12:02:22;;;;;;;4.95;3.13;;;;;;;16.58;32.91;102591.72;4940627;28;20133;-67
2022/04/17 12:04:56;;;;;;;3.97;3.08;;;;;;;16.35;39.88;102590.41;4934934;28;20043;-67
2022/04/17 12:07:23;;;;;;;4.38;3.10;;;;;;;16.58;34.22;102589.03;4917628;29;20064;-67
2022/04/17 12:09:49;;;;;;;4.32;2.97;;;;;;;16.82;33.57;102579.47;4936096;28;20093;-67
2022/04/17 12:12:19;;;;;;;3.00;2.35;;;;;;;16.85;33.91;102578.41;4934082;28;20043;-67
2022/04/17 12:14:46;;;;;;;4.25;2.95;;;;;;;16.53;32.42;102566.91;4940601;28;20046;-67
2022/04/17 12:17:16;;;;;;;3.28;2.53;;;;;;;16.81;33.89;102566.09;4919544;28;20035;-66
2022/04/17 12:19:51;;;;;;;3.72;2.58;;;;;;;16.89;34.66;102569.19;4919924;28;20043;-67
2022/04/17 12:22:20;;;;;;;3.13;2.58;;;;;;;16.86;34.38;102565.81;4944286;28;20105;-66
2022/04/17 12:24:45;;;;;;;3.45;2.35;;;;;;;16.80;32.12;102548.19;4947250;28;20035;-67
2022/04/17 12:27:13;;;;;;;2.70;2.30;;;;;;;17.11;34.82;102548.94;4952871;28;20942;-67